createdAt,value
2018-12-05T00:00:54.378Z,1017.92
2018-12-05T00:01:54.358Z,1017.9
2018-12-05T00:02:54.335Z,1017.87
2018-12-05T00:03:54.323Z,1017.76
2018-12-05T00:04:54.289Z,1017.78
2018-12-05T00:05:54.271Z,1017.8
2018-12-05T00:06:54.246Z,1017.77
2018-12-05T00:07:54.223Z,1017.73
2018-12-05T00:08:54.200Z,1017.73
2018-12-05T00:09:54.180Z,1017.7
2018-12-05T00:10:54.158Z,1017.72
2018-12-05T00:11:54.133Z,1017.72
2018-12-05T00:12:54.111Z,1017.71
2018-12-05T00:13:54.093Z,1017.7
2018-12-05T00:14:54.069Z,1017.72
2018-12-05T00:15:54.049Z,1017.76
2018-12-05T00:16:54.024Z,1017.75
2018-12-05T00:17:54.007Z,1017.78
2018-12-05T00:18:53.981Z,1017.75
2018-12-05T00:19:53.960Z,1017.75
2018-12-05T00:20:54.010Z,1017.74
2018-12-05T00:21:53.915Z,1017.72
2018-12-05T00:22:53.892Z,1017.77
2018-12-05T00:23:53.869Z,1017.78
2018-12-05T00:24:53.849Z,1017.78
2018-12-05T00:25:53.824Z,1017.79
2018-12-05T00:26:53.806Z,1017.81
2018-12-05T00:27:53.784Z,1017.85
2018-12-05T00:28:53.760Z,1017.79
2018-12-05T00:29:53.736Z,1017.79
2018-12-05T00:30:53.718Z,1017.76
2018-12-05T00:31:53.696Z,1017.77
2018-12-05T00:32:53.673Z,1017.71
2018-12-05T00:33:53.650Z,1017.68
2018-12-05T00:34:53.630Z,1017.7
2018-12-05T00:35:53.617Z,1017.68
2018-12-05T00:36:53.589Z,1017.65
2018-12-05T00:37:53.563Z,1017.74
2018-12-05T00:38:53.542Z,1017.71
2018-12-05T00:39:53.522Z,1017.76
2018-12-05T00:40:53.497Z,1017.7
2018-12-05T00:41:53.478Z,1017.72
2018-12-05T00:42:53.454Z,1017.67
2018-12-05T00:43:53.434Z,1017.67
2018-12-05T00:44:53.412Z,1017.67
2018-12-05T00:45:53.396Z,1017.61
2018-12-05T00:46:53.370Z,1017.62
2018-12-05T00:47:53.344Z,1017.61
2018-12-05T00:48:53.326Z,1017.59
2018-12-05T00:49:53.301Z,1017.62
2018-12-05T00:50:53.283Z,1017.59
2018-12-05T00:51:53.258Z,1017.6
2018-12-05T00:52:53.234Z,1017.57
2018-12-05T00:53:53.214Z,1017.56
2018-12-05T00:54:53.195Z,1017.55
2018-12-05T00:55:53.168Z,1017.52
2018-12-05T00:56:53.148Z,1017.55
2018-12-05T00:57:53.131Z,1017.51
2018-12-05T00:58:53.104Z,1017.48
2018-12-05T00:59:53.087Z,1017.49
2018-12-05T01:00:53.061Z,1017.49
2018-12-05T01:01:53.039Z,1017.49
2018-12-05T01:02:53.021Z,1017.47
2018-12-05T01:03:52.995Z,1017.51
2018-12-05T01:04:52.975Z,1017.54
2018-12-05T01:05:52.953Z,1017.47
2018-12-05T01:06:52.929Z,1017.51
2018-12-05T01:07:52.908Z,1017.54
2018-12-05T01:08:52.885Z,1017.55
2018-12-05T01:09:52.865Z,1017.61
2018-12-05T01:10:52.843Z,1017.65
2018-12-05T01:11:52.821Z,1017.64
2018-12-05T01:12:52.800Z,1017.62
2018-12-05T01:13:52.777Z,1017.61
2018-12-05T01:14:52.757Z,1017.6
2018-12-05T01:15:52.743Z,1017.63
2018-12-05T01:16:52.712Z,1017.62
2018-12-05T01:17:52.692Z,1017.62
2018-12-05T01:18:52.671Z,1017.59
2018-12-05T01:19:52.647Z,1017.59
2018-12-05T01:20:52.625Z,1017.61
2018-12-05T01:21:52.606Z,1017.6
2018-12-05T01:22:52.582Z,1017.57
2018-12-05T01:23:52.562Z,1017.57
2018-12-05T01:24:52.541Z,1017.55
2018-12-05T01:25:52.518Z,1017.54
2018-12-05T01:26:52.700Z,1017.53
2018-12-05T01:27:52.473Z,1017.52
2018-12-05T01:28:52.454Z,1017.53
2018-12-05T01:29:52.430Z,1017.52
2018-12-05T01:30:52.409Z,1017.52
2018-12-05T01:31:52.387Z,1017.56
2018-12-05T01:32:52.365Z,1017.56
2018-12-05T01:33:52.343Z,1017.57
2018-12-05T01:34:52.326Z,1017.61
2018-12-05T01:35:52.314Z,1017.61
2018-12-05T01:36:52.281Z,1017.61
2018-12-05T01:37:52.256Z,1017.61
2018-12-05T01:38:52.233Z,1017.61
2018-12-05T01:39:52.210Z,1017.6
2018-12-05T01:40:52.193Z,1017.59
2018-12-05T01:41:52.168Z,1017.57
2018-12-05T01:42:52.145Z,1017.57
2018-12-05T01:43:52.124Z,1017.53
2018-12-05T01:44:52.103Z,1017.51
2018-12-05T01:45:52.081Z,1017.53
2018-12-05T01:46:52.061Z,1017.5
2018-12-05T01:47:52.038Z,1017.49
2018-12-05T01:48:52.017Z,1017.45
2018-12-05T01:49:51.992Z,1017.46
2018-12-05T01:50:51.971Z,1017.5
2018-12-05T01:51:51.950Z,1017.46
2018-12-05T01:52:51.928Z,1017.4
2018-12-05T01:53:51.905Z,1017.43
2018-12-05T01:54:51.883Z,1017.42
2018-12-05T01:55:51.860Z,1017.47
2018-12-05T01:56:51.840Z,1017.44
2018-12-05T01:57:51.817Z,1017.42
2018-12-05T01:58:51.796Z,1017.45
2018-12-05T01:59:51.776Z,1017.42
2018-12-05T02:00:51.750Z,1017.4
2018-12-05T02:01:51.732Z,1017.37
2018-12-05T02:02:51.709Z,1017.36
2018-12-05T02:03:51.686Z,1017.37
2018-12-05T02:04:51.666Z,1017.35
2018-12-05T02:05:51.643Z,1017.39
2018-12-05T02:06:51.619Z,1017.38
2018-12-05T02:07:51.597Z,1017.4
2018-12-05T02:08:51.576Z,1017.37
2018-12-05T02:09:51.555Z,1017.42
2018-12-05T02:10:51.533Z,1017.43
2018-12-05T02:11:51.507Z,1017.42
2018-12-05T02:12:51.491Z,1017.42
2018-12-05T02:13:51.464Z,1017.4
2018-12-05T02:14:51.443Z,1017.34
2018-12-05T02:15:51.420Z,1017.3
2018-12-05T02:16:51.401Z,1017.32
2018-12-05T02:17:51.475Z,1017.34
2018-12-05T02:18:51.355Z,1017.36
2018-12-05T02:19:51.333Z,1017.36
2018-12-05T02:20:51.320Z,1017.36
2018-12-05T02:21:51.326Z,1017.4
2018-12-05T02:22:51.414Z,1017.41
2018-12-05T02:23:51.244Z,1017.36
2018-12-05T02:24:51.225Z,1017.36
2018-12-05T02:25:51.202Z,1017.4
2018-12-05T02:26:51.176Z,1017.39
2018-12-05T02:27:51.156Z,1017.37
2018-12-05T02:28:51.132Z,1017.42
2018-12-05T02:29:51.111Z,1017.37
2018-12-05T02:30:51.088Z,1017.39
2018-12-05T02:31:51.066Z,1017.43
2018-12-05T02:32:51.046Z,1017.43
2018-12-05T02:33:51.020Z,1017.41
2018-12-05T02:34:50.999Z,1017.44
2018-12-05T02:35:50.976Z,1017.45
2018-12-05T02:36:50.956Z,1017.49
2018-12-05T02:37:50.936Z,1017.47
2018-12-05T02:38:50.908Z,1017.52
2018-12-05T02:39:50.888Z,1017.56
2018-12-05T02:40:50.866Z,1017.58
2018-12-05T02:41:50.842Z,1017.55
2018-12-05T02:42:50.819Z,1017.58
2018-12-05T02:43:50.798Z,1017.55
2018-12-05T02:44:50.774Z,1017.53
2018-12-05T02:45:50.752Z,1017.55
2018-12-05T02:46:50.734Z,1017.5
2018-12-05T02:47:50.708Z,1017.49
2018-12-05T02:48:50.685Z,1017.51
2018-12-05T02:49:50.666Z,1017.47
2018-12-05T02:50:50.641Z,1017.44
2018-12-05T02:51:50.623Z,1017.43
2018-12-05T02:52:50.597Z,1017.41
2018-12-05T02:53:50.571Z,1017.41
2018-12-05T02:54:50.550Z,1017.43
2018-12-05T02:55:50.529Z,1017.4
2018-12-05T02:56:50.506Z,1017.39
2018-12-05T02:57:50.483Z,1017.39
2018-12-05T02:58:50.468Z,1017.39
2018-12-05T02:59:50.435Z,1017.35
2018-12-05T03:00:50.416Z,1017.32
2018-12-05T03:01:50.398Z,1017.3
2018-12-05T03:02:50.369Z,1017.39
2018-12-05T03:03:50.346Z,1017.38
2018-12-05T03:04:50.325Z,1017.39
2018-12-05T03:05:50.301Z,1017.39
2018-12-05T03:06:50.277Z,1017.4
2018-12-05T03:07:50.256Z,1017.36
2018-12-05T03:08:50.236Z,1017.38
2018-12-05T03:09:50.215Z,1017.39
2018-12-05T03:10:50.188Z,1017.35
2018-12-05T03:11:50.167Z,1017.34
2018-12-05T03:12:50.148Z,1017.31
2018-12-05T03:13:50.119Z,1017.33
2018-12-05T03:14:50.104Z,1017.32
2018-12-05T03:15:50.079Z,1017.33
2018-12-05T03:16:50.054Z,1017.36
2018-12-05T03:17:50.029Z,1017.33
2018-12-05T03:18:50.010Z,1017.32
2018-12-05T03:19:49.988Z,1017.27
2018-12-05T03:20:49.965Z,1017.26
2018-12-05T03:21:49.939Z,1017.28
2018-12-05T03:22:49.928Z,1017.26
2018-12-05T03:23:49.895Z,1017.22
2018-12-05T03:24:49.871Z,1017.17
2018-12-05T03:25:49.851Z,1017.16
2018-12-05T03:26:50.031Z,1017.12
2018-12-05T03:27:49.805Z,1017.11
2018-12-05T03:28:49.938Z,1017.13
2018-12-05T03:29:49.761Z,1017.14
2018-12-05T03:30:49.746Z,1017.22
2018-12-05T03:31:49.761Z,1017.2
2018-12-05T03:32:49.695Z,1017.17
2018-12-05T03:33:49.779Z,1017.17
2018-12-05T03:34:49.649Z,1017.16
2018-12-05T03:35:49.631Z,1017.17
2018-12-05T03:36:49.612Z,1017.17
2018-12-05T03:37:49.581Z,1017.16
2018-12-05T03:38:49.561Z,1017.13
2018-12-05T03:39:49.534Z,1017.14
2018-12-05T03:40:49.513Z,1017.17
2018-12-05T03:41:49.490Z,1017.17
2018-12-05T03:42:49.473Z,1017.16
2018-12-05T03:43:49.451Z,1017.22
2018-12-05T03:44:49.422Z,1017.2
2018-12-05T03:45:49.402Z,1017.21
2018-12-05T03:46:49.377Z,1017.2
2018-12-05T03:47:49.357Z,1017.25
2018-12-05T03:48:49.434Z,1017.21
2018-12-05T03:49:49.311Z,1017.16
2018-12-05T03:50:49.288Z,1017.21
2018-12-05T03:51:49.268Z,1017.2
2018-12-05T03:52:49.243Z,1017.24
2018-12-05T03:53:49.221Z,1017.22
2018-12-05T03:54:49.201Z,1017.23
2018-12-05T03:55:49.177Z,1017.18
2018-12-05T03:56:49.161Z,1017.16
2018-12-05T03:57:49.130Z,1017.2
2018-12-05T03:58:49.110Z,1017.17
2018-12-05T03:59:49.090Z,1017.13
2018-12-05T04:00:49.071Z,1017.19
2018-12-05T04:01:49.041Z,1017.19
2018-12-05T04:02:49.025Z,1017.27
2018-12-05T04:03:48.998Z,1017.25
2018-12-05T04:04:48.974Z,1017.24
2018-12-05T04:05:48.952Z,1017.19
2018-12-05T04:06:48.930Z,1017.2
2018-12-05T04:07:48.909Z,1017.18
2018-12-05T04:08:48.883Z,1017.22
2018-12-05T04:09:48.865Z,1017.14
2018-12-05T04:10:48.840Z,1017.23
2018-12-05T04:11:48.819Z,1017.27
2018-12-05T04:12:48.793Z,1017.21
2018-12-05T04:13:48.773Z,1017.19
2018-12-05T04:14:48.748Z,1017.26
2018-12-05T04:15:48.727Z,1017.22
2018-12-05T04:16:48.702Z,1017.22
2018-12-05T04:17:48.681Z,1017.22
2018-12-05T04:18:48.663Z,1017.2
2018-12-05T04:19:48.635Z,1017.19
2018-12-05T04:20:48.614Z,1017.18
2018-12-05T04:21:48.591Z,1017.19
2018-12-05T04:22:48.570Z,1017.17
2018-12-05T04:23:48.553Z,1017.25
2018-12-05T04:24:48.524Z,1017.23
2018-12-05T04:25:48.502Z,1017.25
2018-12-05T04:26:48.480Z,1017.26
2018-12-05T04:27:48.455Z,1017.31
2018-12-05T04:28:48.434Z,1017.27
2018-12-05T04:29:48.416Z,1017.27
2018-12-05T04:30:48.387Z,1017.24
2018-12-05T04:31:48.365Z,1017.23
2018-12-05T04:32:48.347Z,1017.25
2018-12-05T04:33:48.328Z,1017.28
2018-12-05T04:34:48.347Z,1017.3
2018-12-05T04:35:48.276Z,1017.31
2018-12-05T04:36:48.254Z,1017.34
2018-12-05T04:37:48.228Z,1017.33
2018-12-05T04:38:48.210Z,1017.28
2018-12-05T04:39:48.185Z,1017.31
2018-12-05T04:40:48.164Z,1017.33
2018-12-05T04:41:48.140Z,1017.34
2018-12-05T04:42:48.122Z,1017.36
2018-12-05T04:43:48.091Z,1017.39
2018-12-05T04:44:48.071Z,1017.41
2018-12-05T04:45:48.050Z,1017.39
2018-12-05T04:46:48.023Z,1017.44
2018-12-05T04:47:48.009Z,1017.38
2018-12-05T04:48:47.978Z,1017.36
2018-12-05T04:49:47.957Z,1017.39
2018-12-05T04:50:47.933Z,1017.41
2018-12-05T04:51:47.915Z,1017.43
2018-12-05T04:52:47.885Z,1017.43
2018-12-05T04:53:47.864Z,1017.38
2018-12-05T04:54:47.841Z,1017.41
2018-12-05T04:55:47.819Z,1017.4
2018-12-05T04:56:47.798Z,1017.39
2018-12-05T04:57:47.773Z,1017.34
2018-12-05T04:58:47.753Z,1017.29
2018-12-05T04:59:47.728Z,1017.3
2018-12-05T05:00:47.708Z,1017.25
2018-12-05T05:01:47.681Z,1017.29
2018-12-05T05:02:47.660Z,1017.21
2018-12-05T05:03:47.635Z,1017.23
2018-12-05T05:04:47.618Z,1017.23
2018-12-05T05:05:47.590Z,1017.2
2018-12-05T05:06:47.572Z,1017.18
2018-12-05T05:07:47.547Z,1017.14
2018-12-05T05:08:47.520Z,1017.12
2018-12-05T05:09:47.500Z,1017.15
2018-12-05T05:10:47.478Z,1017.15
2018-12-05T05:11:47.453Z,1017.14
2018-12-05T05:12:47.429Z,1017.15
2018-12-05T05:13:47.410Z,1017.15
2018-12-05T05:14:47.383Z,1017.15
2018-12-05T05:15:47.361Z,1017.15
2018-12-05T05:16:47.338Z,1017.15
2018-12-05T05:17:47.318Z,1017.14
2018-12-05T05:18:47.377Z,1017.13
2018-12-05T05:19:47.271Z,1017.12
2018-12-05T05:20:47.249Z,1017.16
2018-12-05T05:21:47.227Z,1017.11
2018-12-05T05:22:47.204Z,1017.09
2018-12-05T05:23:47.184Z,1017.09
2018-12-05T05:24:47.159Z,1017.04
2018-12-05T05:25:47.134Z,1017.05
2018-12-05T05:26:47.111Z,1017
2018-12-05T05:27:47.088Z,1016.98
2018-12-05T05:28:47.070Z,1016.99
2018-12-05T05:29:47.044Z,1016.97
2018-12-05T05:30:47.025Z,1017.01
2018-12-05T05:31:47.001Z,1016.96
2018-12-05T05:32:46.978Z,1016.93
2018-12-05T05:33:46.962Z,1016.89
2018-12-05T05:34:46.933Z,1016.85
2018-12-05T05:35:46.911Z,1016.86
2018-12-05T05:36:46.885Z,1016.81
2018-12-05T05:37:46.867Z,1016.75
2018-12-05T05:38:46.844Z,1016.74
2018-12-05T05:39:46.819Z,1016.79
2018-12-05T05:40:46.794Z,1016.86
2018-12-05T05:41:46.781Z,1016.84
2018-12-05T05:42:46.748Z,1016.89
2018-12-05T05:43:46.726Z,1016.94
2018-12-05T05:44:46.712Z,1016.93
2018-12-05T05:45:46.683Z,1016.91
2018-12-05T05:46:46.659Z,1016.93
2018-12-05T05:47:46.636Z,1016.93
2018-12-05T05:48:46.613Z,1016.88
2018-12-05T05:49:46.593Z,1016.97
2018-12-05T05:50:46.567Z,1016.94
2018-12-05T05:51:46.545Z,1016.96
2018-12-05T05:52:46.523Z,1016.92
2018-12-05T05:53:46.500Z,1016.97
2018-12-05T05:54:46.479Z,1016.95
2018-12-05T05:55:46.461Z,1016.94
2018-12-05T05:56:46.433Z,1016.97
2018-12-05T05:57:46.426Z,1016.93
2018-12-05T05:58:46.390Z,1016.93
2018-12-05T05:59:46.364Z,1016.95
2018-12-05T06:00:46.340Z,1016.95
2018-12-05T06:01:46.318Z,1016.91
2018-12-05T06:02:46.294Z,1016.93
2018-12-05T06:03:46.273Z,1016.98
2018-12-05T06:04:46.251Z,1016.98
2018-12-05T06:05:46.227Z,1016.99
2018-12-05T06:06:46.203Z,1016.98
2018-12-05T06:07:46.184Z,1017
2018-12-05T06:08:46.160Z,1017.02
2018-12-05T06:09:46.137Z,1016.97
2018-12-05T06:10:46.116Z,1016.97
2018-12-05T06:11:46.091Z,1016.96
2018-12-05T06:12:46.068Z,1016.97
2018-12-05T06:13:46.046Z,1016.99
2018-12-05T06:14:46.024Z,1016.96
2018-12-05T06:15:45.999Z,1017.02
2018-12-05T06:16:45.976Z,1016.93
2018-12-05T06:17:45.955Z,1016.91
2018-12-05T06:18:45.936Z,1016.92
2018-12-05T06:19:45.910Z,1016.95
2018-12-05T06:20:45.885Z,1016.94
2018-12-05T06:21:45.864Z,1016.95
2018-12-05T06:22:45.842Z,1016.97
2018-12-05T06:23:45.817Z,1017
2018-12-05T06:24:45.820Z,1016.97
2018-12-05T06:25:45.772Z,1016.98
2018-12-05T06:26:45.753Z,1017.03
2018-12-05T06:27:45.770Z,1017.01
2018-12-05T06:28:45.709Z,1017.03
2018-12-05T06:29:45.688Z,1017.02
2018-12-05T06:30:45.660Z,1017.03
2018-12-05T06:31:45.633Z,1017.03
2018-12-05T06:32:45.614Z,1017.1
2018-12-05T06:33:45.589Z,1017.1
2018-12-05T06:34:45.566Z,1017.14
2018-12-05T06:35:45.544Z,1017.13
2018-12-05T06:36:45.523Z,1017.1
2018-12-05T06:37:45.501Z,1017.06
2018-12-05T06:38:45.478Z,1017.07
2018-12-05T06:39:45.452Z,1017.09
2018-12-05T06:40:45.431Z,1017.06
2018-12-05T06:41:45.409Z,1017.02
2018-12-05T06:42:45.384Z,1017.03
2018-12-05T06:43:45.362Z,1017.01
2018-12-05T06:44:45.340Z,1016.99
2018-12-05T06:45:45.316Z,1016.99
2018-12-05T06:46:45.325Z,1017.05
2018-12-05T06:47:45.271Z,1017.02
2018-12-05T06:48:45.249Z,1017.03
2018-12-05T06:49:45.226Z,1017.05
2018-12-05T06:50:45.207Z,1017.03
2018-12-05T06:51:45.181Z,1017
2018-12-05T06:52:45.159Z,1017.02
2018-12-05T06:53:45.133Z,1017.01
2018-12-05T06:54:45.115Z,1016.97
2018-12-05T06:55:45.101Z,1016.97
2018-12-05T06:56:45.137Z,1016.98
2018-12-05T06:57:45.047Z,1016.92
2018-12-05T06:58:45.022Z,1016.93
2018-12-05T06:59:44.996Z,1016.92
2018-12-05T07:00:44.974Z,1016.92
2018-12-05T07:01:44.954Z,1016.93
2018-12-05T07:02:44.929Z,1016.94
2018-12-05T07:03:44.906Z,1016.93
2018-12-05T07:04:44.885Z,1016.95
2018-12-05T07:05:44.862Z,1017
2018-12-05T07:06:44.839Z,1017
2018-12-05T07:07:44.816Z,1017.01
2018-12-05T07:08:44.806Z,1017.03
2018-12-05T07:09:44.776Z,1017.03
2018-12-05T07:10:44.750Z,1017.06
2018-12-05T07:11:44.731Z,1016.99
2018-12-05T07:12:44.720Z,1017.03
2018-12-05T07:13:44.689Z,1017.04
2018-12-05T07:14:44.657Z,1017
2018-12-05T07:15:44.633Z,1016.96
2018-12-05T07:16:44.615Z,1016.98
2018-12-05T07:17:44.592Z,1017.01
2018-12-05T07:18:44.573Z,1016.98
2018-12-05T07:19:44.545Z,1016.92
2018-12-05T07:20:44.527Z,1016.96
2018-12-05T07:21:44.500Z,1016.94
2018-12-05T07:22:44.476Z,1016.94
2018-12-05T07:23:44.456Z,1016.91
2018-12-05T07:24:44.433Z,1016.92
2018-12-05T07:25:44.407Z,1016.94
2018-12-05T07:26:44.387Z,1017.01
2018-12-05T07:27:44.565Z,1016.99
2018-12-05T07:28:44.344Z,1017.03
2018-12-05T07:29:44.318Z,1017.05
2018-12-05T07:30:44.297Z,1017
2018-12-05T07:31:44.273Z,1017.07
2018-12-05T07:32:44.251Z,1017.01
2018-12-05T07:33:44.229Z,1016.99
2018-12-05T07:34:44.208Z,1017
2018-12-05T07:35:44.183Z,1017
2018-12-05T07:36:44.161Z,1016.99
2018-12-05T07:37:44.139Z,1016.97
2018-12-05T07:38:44.116Z,1017
2018-12-05T07:39:44.093Z,1016.95
2018-12-05T07:40:44.069Z,1017.03
2018-12-05T07:41:44.047Z,1017.06
2018-12-05T07:42:44.027Z,1017.06
2018-12-05T07:43:44.003Z,1017.04
2018-12-05T07:44:43.983Z,1017.1
2018-12-05T07:45:43.959Z,1017.05
2018-12-05T07:46:43.939Z,1017.03
2018-12-05T07:47:43.915Z,1017.06
2018-12-05T07:48:43.892Z,1017.12
2018-12-05T07:49:43.884Z,1017.1
2018-12-05T07:50:43.849Z,1017.15
2018-12-05T07:51:43.826Z,1017.1
2018-12-05T07:52:43.801Z,1017.11
2018-12-05T07:53:43.780Z,1017.1
2018-12-05T07:54:43.759Z,1017.05
2018-12-05T07:55:43.735Z,1017.04
2018-12-05T07:56:43.713Z,1016.99
2018-12-05T07:57:43.695Z,1016.97
2018-12-05T07:58:43.667Z,1016.95
2018-12-05T07:59:43.646Z,1016.91
2018-12-05T08:00:43.626Z,1016.9
2018-12-05T08:01:43.603Z,1016.91
2018-12-05T08:02:43.581Z,1016.93
2018-12-05T08:03:43.558Z,1016.91
2018-12-05T08:04:43.535Z,1016.9
2018-12-05T08:05:43.515Z,1016.88
2018-12-05T08:06:43.491Z,1016.84
2018-12-05T08:07:43.468Z,1016.85
2018-12-05T08:08:43.446Z,1016.83
2018-12-05T08:09:43.424Z,1016.85
2018-12-05T08:10:43.406Z,1016.81
2018-12-05T08:11:43.379Z,1016.76
2018-12-05T08:12:43.357Z,1016.76
2018-12-05T08:13:43.336Z,1016.72
2018-12-05T08:14:43.313Z,1016.73
2018-12-05T08:15:43.292Z,1016.69
2018-12-05T08:16:43.305Z,1016.71
2018-12-05T08:17:43.249Z,1016.68
2018-12-05T08:18:43.224Z,1016.69
2018-12-05T08:19:43.204Z,1016.67
2018-12-05T08:20:43.199Z,1016.68
2018-12-05T08:21:43.158Z,1016.67
2018-12-05T08:22:43.140Z,1016.72
2018-12-05T08:23:43.117Z,1016.7
2018-12-05T08:24:43.098Z,1016.72
2018-12-05T08:25:43.071Z,1016.7
2018-12-05T08:26:43.054Z,1016.69
2018-12-05T08:27:43.030Z,1016.67
2018-12-05T08:28:43.005Z,1016.69
2018-12-05T08:29:42.986Z,1016.66
2018-12-05T08:30:43.163Z,1016.61
2018-12-05T08:31:42.937Z,1016.61
2018-12-05T08:32:42.918Z,1016.57
2018-12-05T08:33:42.901Z,1016.61
2018-12-05T08:34:42.876Z,1016.58
2018-12-05T08:35:42.853Z,1016.6
2018-12-05T08:36:42.829Z,1016.59
2018-12-05T08:37:42.812Z,1016.6
2018-12-05T08:38:42.785Z,1016.6
2018-12-05T08:39:42.768Z,1016.63
2018-12-05T08:40:42.743Z,1016.59
2018-12-05T08:41:42.721Z,1016.59
2018-12-05T08:42:42.700Z,1016.59
2018-12-05T08:43:43.759Z,1016.58
2018-12-05T08:44:42.657Z,1016.58
2018-12-05T08:45:42.635Z,1016.54
2018-12-05T08:46:42.612Z,1016.55
2018-12-05T08:47:42.593Z,1016.56
2018-12-05T08:48:42.569Z,1016.58
2018-12-05T08:49:42.551Z,1016.56
2018-12-05T08:50:42.530Z,1016.55
2018-12-05T08:51:42.507Z,1016.55
2018-12-05T08:52:42.482Z,1016.54
2018-12-05T08:53:42.460Z,1016.57
2018-12-05T08:54:42.439Z,1016.56
2018-12-05T08:55:42.420Z,1016.58
2018-12-05T08:56:42.397Z,1016.59
2018-12-05T08:57:42.374Z,1016.6
2018-12-05T08:58:42.355Z,1016.56
2018-12-05T08:59:42.360Z,1016.54
2018-12-05T09:00:42.309Z,1016.54
2018-12-05T09:01:42.288Z,1016.53
2018-12-05T09:02:42.267Z,1016.55
2018-12-05T09:03:42.247Z,1016.51
2018-12-05T09:04:42.225Z,1016.54
2018-12-05T09:05:42.206Z,1016.5
2018-12-05T09:06:42.181Z,1016.49
2018-12-05T09:07:42.160Z,1016.51
2018-12-05T09:08:42.138Z,1016.51
2018-12-05T09:09:42.120Z,1016.51
2018-12-05T09:10:42.100Z,1016.53
2018-12-05T09:11:42.078Z,1016.51
2018-12-05T09:12:42.055Z,1016.51
2018-12-05T09:13:42.032Z,1016.53
2018-12-05T09:14:42.012Z,1016.54
2018-12-05T09:15:41.999Z,1016.48
2018-12-05T09:16:41.973Z,1016.51
2018-12-05T09:17:41.947Z,1016.5
2018-12-05T09:18:41.930Z,1016.5
2018-12-05T09:19:41.906Z,1016.49
2018-12-05T09:20:41.886Z,1016.49
2018-12-05T09:21:41.882Z,1016.52
2018-12-05T09:22:41.993Z,1016.47
2018-12-05T09:23:41.828Z,1016.47
2018-12-05T09:24:41.802Z,1016.43
2018-12-05T09:25:41.784Z,1016.43
2018-12-05T09:26:41.759Z,1016.31
2018-12-05T09:27:41.945Z,1016.28
2018-12-05T09:28:41.717Z,1016.28
2018-12-05T09:29:41.696Z,1016.26
2018-12-05T09:30:41.677Z,1016.24
2018-12-05T09:31:41.656Z,1016.29
2018-12-05T09:32:41.636Z,1016.3
2018-12-05T09:33:41.614Z,1016.26
2018-12-05T09:34:41.595Z,1016.25
2018-12-05T09:35:41.573Z,1016.21
2018-12-05T09:36:41.553Z,1016.2
2018-12-05T09:37:41.534Z,1016.17
2018-12-05T09:38:41.509Z,1016.19
2018-12-05T09:39:41.494Z,1016.19
2018-12-05T09:40:41.468Z,1016.18
2018-12-05T09:41:41.448Z,1016.15
2018-12-05T09:42:41.427Z,1016.16
2018-12-05T09:43:41.412Z,1016.17
2018-12-05T09:44:41.390Z,1016.13
2018-12-05T09:45:41.372Z,1016.13
2018-12-05T09:46:41.349Z,1016.13
2018-12-05T09:47:41.328Z,1016.11
2018-12-05T09:48:41.308Z,1016.14
2018-12-05T09:49:41.287Z,1016.13
2018-12-05T09:50:41.270Z,1016.16
2018-12-05T09:51:41.245Z,1016.15
2018-12-05T09:52:41.223Z,1016.12
2018-12-05T09:53:41.206Z,1016.11
2018-12-05T09:54:41.190Z,1016.08
2018-12-05T09:55:41.161Z,1016.07
2018-12-05T09:56:41.142Z,1016.07
2018-12-05T09:57:41.122Z,1016.09
2018-12-05T09:58:41.106Z,1016.1
2018-12-05T09:59:41.083Z,1016.07
2018-12-05T10:00:41.066Z,1016.08
2018-12-05T10:01:41.041Z,1016.03
2018-12-05T10:02:41.021Z,1016.02
2018-12-05T10:03:41.002Z,1016.03
2018-12-05T10:04:40.986Z,1016.02
2018-12-05T10:05:40.964Z,1016.04
2018-12-05T10:06:40.944Z,1015.93
2018-12-05T10:07:40.927Z,1015.95
2018-12-05T10:08:40.906Z,1015.93
2018-12-05T10:09:40.893Z,1015.92
2018-12-05T10:10:40.863Z,1015.89
2018-12-05T10:11:40.843Z,1015.94
2018-12-05T10:12:40.826Z,1015.91
2018-12-05T10:13:40.805Z,1015.91
2018-12-05T10:14:40.785Z,1015.87
2018-12-05T10:15:40.767Z,1015.9
2018-12-05T10:16:40.748Z,1015.9
2018-12-05T10:17:40.732Z,1015.91
2018-12-05T10:18:40.709Z,1015.9
2018-12-05T10:19:40.690Z,1015.9
2018-12-05T10:20:40.675Z,1015.88
2018-12-05T10:21:40.854Z,1015.87
2018-12-05T10:22:40.634Z,1015.85
2018-12-05T10:23:40.616Z,1015.86
2018-12-05T10:24:40.595Z,1015.82
2018-12-05T10:25:40.577Z,1015.81
2018-12-05T10:26:40.561Z,1015.76
2018-12-05T10:27:40.540Z,1015.79
2018-12-05T10:28:40.523Z,1015.76
2018-12-05T10:29:40.507Z,1015.75
2018-12-05T10:30:40.509Z,1015.76
2018-12-05T10:31:43.905Z,1015.69
2018-12-05T10:32:40.446Z,1015.68
2018-12-05T10:33:40.433Z,1015.64
2018-12-05T10:34:40.411Z,1015.65
2018-12-05T10:35:40.394Z,1015.54
2018-12-05T10:36:40.375Z,1015.56
2018-12-05T10:37:40.355Z,1015.54
2018-12-05T10:38:40.339Z,1015.54
2018-12-05T10:39:40.326Z,1015.55
2018-12-05T10:40:40.300Z,1015.48
2018-12-05T10:41:40.281Z,1015.48
2018-12-05T10:42:40.266Z,1015.52
2018-12-05T10:43:40.245Z,1015.48
2018-12-05T10:44:40.225Z,1015.46
2018-12-05T10:45:40.206Z,1015.47
2018-12-05T10:46:40.193Z,1015.46
2018-12-05T10:47:40.170Z,1015.45
2018-12-05T10:48:40.690Z,1015.41
2018-12-05T10:49:40.135Z,1015.42
2018-12-05T10:50:40.119Z,1015.43
2018-12-05T10:51:40.099Z,1015.41
2018-12-05T10:52:40.082Z,1015.43
2018-12-05T10:53:40.063Z,1015.38
2018-12-05T10:54:40.045Z,1015.38
2018-12-05T10:55:40.028Z,1015.35
2018-12-05T10:56:40.012Z,1015.35
2018-12-05T10:57:39.995Z,1015.33
2018-12-05T10:58:39.988Z,1015.33
2018-12-05T10:59:39.956Z,1015.31
2018-12-05T11:00:39.970Z,1015.23
2018-12-05T11:01:39.921Z,1015.23
2018-12-05T11:02:39.903Z,1015.22
2018-12-05T11:03:39.884Z,1015.18
2018-12-05T11:04:39.869Z,1015.19
2018-12-05T11:05:39.850Z,1015.18
2018-12-05T11:06:39.838Z,1015.16
2018-12-05T11:07:39.818Z,1015.16
2018-12-05T11:08:39.794Z,1015.13
2018-12-05T11:09:39.776Z,1015.13
2018-12-05T11:10:39.761Z,1015.12
2018-12-05T11:11:39.741Z,1015.12
2018-12-05T11:12:39.726Z,1015.14
2018-12-05T11:13:39.705Z,1015.11
2018-12-05T11:14:39.687Z,1015.1
2018-12-05T11:15:39.673Z,1015.13
2018-12-05T11:16:39.650Z,1015.04
2018-12-05T11:17:39.632Z,1015.07
2018-12-05T11:18:39.615Z,1015.01
2018-12-05T11:19:39.596Z,1015.02
2018-12-05T11:20:39.581Z,1014.98
2018-12-05T11:21:39.561Z,1014.92
2018-12-05T11:22:39.545Z,1014.91
2018-12-05T11:23:39.527Z,1014.93
2018-12-05T11:24:39.511Z,1014.88
2018-12-05T11:25:39.487Z,1014.86
2018-12-05T11:26:39.500Z,1014.87
2018-12-05T11:27:39.655Z,1014.84
2018-12-05T11:28:39.438Z,1014.85
2018-12-05T11:29:39.416Z,1014.78
2018-12-05T11:30:39.405Z,1014.75
2018-12-05T11:31:39.384Z,1014.69
2018-12-05T11:32:39.365Z,1014.71
2018-12-05T11:33:39.343Z,1014.65
2018-12-05T11:34:39.329Z,1014.57
2018-12-05T11:35:39.311Z,1014.54
2018-12-05T11:36:39.289Z,1014.53
2018-12-05T11:37:39.305Z,1014.46
2018-12-05T11:38:39.249Z,1014.45
2018-12-05T11:39:39.233Z,1014.4
2018-12-05T11:40:39.215Z,1014.37
2018-12-05T11:41:39.194Z,1014.4
2018-12-05T11:42:39.177Z,1014.37
2018-12-05T11:43:39.160Z,1014.41
2018-12-05T11:44:39.140Z,1014.42
2018-12-05T11:45:39.120Z,1014.46
2018-12-05T11:46:39.109Z,1014.49
2018-12-05T11:47:39.084Z,1014.46
2018-12-05T11:48:39.067Z,1014.45
2018-12-05T11:49:39.050Z,1014.44
2018-12-05T11:50:39.029Z,1014.44
2018-12-05T11:51:39.011Z,1014.42
2018-12-05T11:52:38.992Z,1014.42
2018-12-05T11:53:38.974Z,1014.44
2018-12-05T11:54:38.955Z,1014.45
2018-12-05T11:55:38.936Z,1014.4
2018-12-05T11:56:38.937Z,1014.4
2018-12-05T11:57:38.897Z,1014.39
2018-12-05T11:58:38.881Z,1014.38
2018-12-05T11:59:38.868Z,1014.35
2018-12-05T12:00:39.044Z,1014.33
2018-12-05T12:01:38.830Z,1014.36
2018-12-05T12:02:38.803Z,1014.31
2018-12-05T12:03:38.785Z,1014.32
2018-12-05T12:04:38.778Z,1014.35
2018-12-05T12:05:38.746Z,1014.35
2018-12-05T12:06:38.731Z,1014.36
2018-12-05T12:07:38.709Z,1014.35
2018-12-05T12:08:38.694Z,1014.32